sensor_id;sensor_type;location;lat;lon;timestamp;P1;durP1;ratioP1;P2;durP2;ratioP2
59300;SDS011;45073;52.740;6.784;2022-12-18T00:00:46;65.60;;;22.75;;
59300;SDS011;45073;52.740;6.784;2022-12-18T00:03:13;72.82;;;27.92;;
59300;SDS011;45073;52.740;6.784;2022-12-18T00:05:45;68.22;;;28.08;;
59300;SDS011;45073;52.740;6.784;2022-12-18T00:08:15;66.35;;;24.00;;
59300;SDS011;45073;52.740;6.784;2022-12-18T00:10:42;76.53;;;27.35;;
59300;SDS011;45073;52.740;6.784;2022-12-18T00:13:07;81.00;;;31.20;;
59300;SDS011;45073;52.740;6.784;2022-12-18T00:15:37;67.75;;;27.35;;
59300;SDS011;45073;52.740;6.784;2022-12-18T00:18:04;65.78;;;29.02;;
59300;SDS011;45073;52.740;6.784;2022-12-18T00:20:30;75.95;;;30.35;;
59300;SDS011;45073;52.740;6.784;2022-12-18T00:22:56;66.35;;;24.95;;
59300;SDS011;45073;52.740;6.784;2022-12-18T00:25:21;72.38;;;28.23;;
59300;SDS011;45073;52.740;6.784;2022-12-18T00:27:47;66.47;;;27.48;;
59300;SDS011;45073;52.740;6.784;2022-12-18T00:30:13;75.88;;;28.10;;
59300;SDS011;45073;52.740;6.784;2022-12-18T00:32:39;63.30;;;25.25;;
59300;SDS011;45073;52.740;6.784;2022-12-18T00:35:06;67.45;;;24.63;;
59300;SDS011;45073;52.740;6.784;2022-12-18T00:37:35;73.13;;;27.20;;
59300;SDS011;45073;52.740;6.784;2022-12-18T00:40:01;73.05;;;27.98;;
59300;SDS011;45073;52.740;6.784;2022-12-18T00:42:27;87.65;;;32.80;;
59300;SDS011;45073;52.740;6.784;2022-12-18T00:45:11;83.20;;;29.00;;
59300;SDS011;45073;52.740;6.784;2022-12-18T00:47:37;60.50;;;26.98;;
59300;SDS011;45073;52.740;6.784;2022-12-18T00:50:03;82.65;;;31.85;;
59300;SDS011;45073;52.740;6.784;2022-12-18T00:52:29;70.28;;;26.33;;
59300;SDS011;45073;52.740;6.784;2022-12-18T00:54:54;68.90;;;24.58;;
59300;SDS011;45073;52.740;6.784;2022-12-18T00:57:20;72.75;;;27.90;;
59300;SDS011;45073;52.740;6.784;2022-12-18T00:59:45;60.47;;;24.45;;
59300;SDS011;45073;52.740;6.784;2022-12-18T01:02:11;73.90;;;26.40;;
59300;SDS011;45073;52.740;6.784;2022-12-18T01:04:37;67.20;;;25.65;;
59300;SDS011;45073;52.740;6.784;2022-12-18T01:07:02;70.60;;;25.75;;
59300;SDS011;45073;52.740;6.784;2022-12-18T01:09:28;67.88;;;27.25;;
59300;SDS011;45073;52.740;6.784;2022-12-18T01:11:53;67.32;;;24.17;;
59300;SDS011;45073;52.740;6.784;2022-12-18T01:14:19;61.47;;;24.00;;
59300;SDS011;45073;52.740;6.784;2022-12-18T01:16:44;59.42;;;23.88;;
59300;SDS011;45073;52.740;6.784;2022-12-18T01:19:10;56.75;;;21.90;;
59300;SDS011;45073;52.740;6.784;2022-12-18T01:21:36;61.13;;;25.08;;
59300;SDS011;45073;52.740;6.784;2022-12-18T01:24:01;62.15;;;24.10;;
59300;SDS011;45073;52.740;6.784;2022-12-18T01:26:27;58.53;;;24.17;;
59300;SDS011;45073;52.740;6.784;2022-12-18T01:28:55;62.97;;;23.13;;
59300;SDS011;45073;52.740;6.784;2022-12-18T01:31:27;64.38;;;26.65;;
59300;SDS011;45073;52.740;6.784;2022-12-18T01:33:55;53.42;;;21.80;;
59300;SDS011;45073;52.740;6.784;2022-12-18T01:36:25;59.13;;;22.65;;
59300;SDS011;45073;52.740;6.784;2022-12-18T01:38:52;60.42;;;23.95;;
59300;SDS011;45073;52.740;6.784;2022-12-18T01:41:20;67.70;;;25.60;;
59300;SDS011;45073;52.740;6.784;2022-12-18T01:46:19;57.08;;;22.88;;
59300;SDS011;45073;52.740;6.784;2022-12-18T01:48:48;59.05;;;25.00;;
59300;SDS011;45073;52.740;6.784;2022-12-18T01:51:19;68.72;;;26.30;;
59300;SDS011;45073;52.740;6.784;2022-12-18T01:53:45;69.68;;;28.23;;
59300;SDS011;45073;52.740;6.784;2022-12-18T01:56:12;64.35;;;25.73;;
59300;SDS011;45073;52.740;6.784;2022-12-18T01:58:42;61.67;;;23.98;;
59300;SDS011;45073;52.740;6.784;2022-12-18T02:03:42;65.97;;;25.05;;
59300;SDS011;45073;52.740;6.784;2022-12-18T02:06:13;59.30;;;22.58;;
59300;SDS011;45073;52.740;6.784;2022-12-18T02:09:02;72.80;;;27.30;;
59300;SDS011;45073;52.740;6.784;2022-12-18T02:11:35;61.25;;;23.20;;
59300;SDS011;45073;52.740;6.784;2022-12-18T02:14:35;58.40;;;24.30;;
59300;SDS011;45073;52.740;6.784;2022-12-18T02:17:17;59.92;;;21.52;;
59300;SDS011;45073;52.740;6.784;2022-12-18T02:28:25;57.78;;;22.05;;
59300;SDS011;45073;52.740;6.784;2022-12-18T02:30:56;58.53;;;21.65;;
59300;SDS011;45073;52.740;6.784;2022-12-18T02:33:25;53.05;;;21.80;;
59300;SDS011;45073;52.740;6.784;2022-12-18T02:35:54;61.33;;;23.88;;
59300;SDS011;45073;52.740;6.784;2022-12-18T02:38:21;54.22;;;23.10;;
59300;SDS011;45073;52.740;6.784;2022-12-18T02:40:49;58.22;;;24.15;;
59300;SDS011;45073;52.740;6.784;2022-12-18T02:43:17;51.70;;;23.02;;
59300;SDS011;45073;52.740;6.784;2022-12-18T02:45:47;51.50;;;22.23;;
59300;SDS011;45073;52.740;6.784;2022-12-18T02:48:16;49.37;;;22.07;;
59300;SDS011;45073;52.740;6.784;2022-12-18T02:50:49;47.30;;;19.60;;
59300;SDS011;45073;52.740;6.784;2022-12-18T02:53:45;53.85;;;22.52;;
59300;SDS011;45073;52.740;6.784;2022-12-18T02:56:31;52.17;;;20.92;;
59300;SDS011;45073;52.740;6.784;2022-12-18T02:59:10;45.28;;;18.85;;
59300;SDS011;45073;52.740;6.784;2022-12-18T03:02:07;40.55;;;18.88;;
59300;SDS011;45073;52.740;6.784;2022-12-18T03:04:43;40.33;;;19.00;;
59300;SDS011;45073;52.740;6.784;2022-12-18T03:07:22;42.58;;;18.33;;
59300;SDS011;45073;52.740;6.784;2022-12-18T03:09:57;43.88;;;17.00;;
59300;SDS011;45073;52.740;6.784;2022-12-18T03:12:28;41.70;;;17.60;;
59300;SDS011;45073;52.740;6.784;2022-12-18T03:15:17;43.78;;;19.17;;
59300;SDS011;45073;52.740;6.784;2022-12-18T03:17:49;35.28;;;16.05;;
59300;SDS011;45073;52.740;6.784;2022-12-18T03:20:20;56.03;;;19.30;;
59300;SDS011;45073;52.740;6.784;2022-12-18T03:22:50;42.60;;;17.63;;
59300;SDS011;45073;52.740;6.784;2022-12-18T03:25:18;47.28;;;19.38;;
59300;SDS011;45073;52.740;6.784;2022-12-18T03:27:49;43.80;;;17.55;;
59300;SDS011;45073;52.740;6.784;2022-12-18T03:30:18;35.03;;;16.48;;
59300;SDS011;45073;52.740;6.784;2022-12-18T03:35:16;39.72;;;19.65;;
59300;SDS011;45073;52.740;6.784;2022-12-18T03:37:46;38.20;;;16.15;;
59300;SDS011;45073;52.740;6.784;2022-12-18T03:40:12;30.73;;;14.88;;
59300;SDS011;45073;52.740;6.784;2022-12-18T03:45:27;31.20;;;15.63;;
59300;SDS011;45073;52.740;6.784;2022-12-18T03:48:01;37.10;;;17.35;;
59300;SDS011;45073;52.740;6.784;2022-12-18T03:50:39;37.45;;;17.52;;
59300;SDS011;45073;52.740;6.784;2022-12-18T03:56:25;38.58;;;15.00;;
59300;SDS011;45073;52.740;6.784;2022-12-18T03:58:54;33.33;;;16.15;;
59300;SDS011;45073;52.740;6.784;2022-12-18T04:01:22;34.92;;;14.82;;
59300;SDS011;45073;52.740;6.784;2022-12-18T04:03:53;36.10;;;16.00;;
59300;SDS011;45073;52.740;6.784;2022-12-18T04:06:21;38.63;;;16.45;;
59300;SDS011;45073;52.740;6.784;2022-12-18T04:08:47;37.03;;;14.98;;
59300;SDS011;45073;52.740;6.784;2022-12-18T04:11:13;35.83;;;16.35;;
59300;SDS011;45073;52.740;6.784;2022-12-18T04:13:39;35.22;;;14.45;;
59300;SDS011;45073;52.740;6.784;2022-12-18T04:16:08;32.95;;;15.30;;
59300;SDS011;45073;52.740;6.784;2022-12-18T04:18:34;36.40;;;16.02;;
59300;SDS011;45073;52.740;6.784;2022-12-18T04:21:00;34.03;;;15.00;;
59300;SDS011;45073;52.740;6.784;2022-12-18T04:23:26;34.28;;;15.00;;
59300;SDS011;45073;52.740;6.784;2022-12-18T04:25:53;36.55;;;16.02;;
59300;SDS011;45073;52.740;6.784;2022-12-18T04:28:19;33.83;;;15.23;;
59300;SDS011;45073;52.740;6.784;2022-12-18T04:30:48;31.70;;;13.63;;
59300;SDS011;45073;52.740;6.784;2022-12-18T04:33:14;33.00;;;14.50;;
59300;SDS011;45073;52.740;6.784;2022-12-18T04:35:40;36.53;;;16.80;;
59300;SDS011;45073;52.740;6.784;2022-12-18T04:38:06;31.83;;;13.80;;
59300;SDS011;45073;52.740;6.784;2022-12-18T04:40:33;34.35;;;14.13;;
59300;SDS011;45073;52.740;6.784;2022-12-18T04:43:00;34.28;;;14.68;;
59300;SDS011;45073;52.740;6.784;2022-12-18T04:45:26;35.10;;;15.90;;
59300;SDS011;45073;52.740;6.784;2022-12-18T04:47:57;30.70;;;14.38;;
59300;SDS011;45073;52.740;6.784;2022-12-18T04:50:23;33.45;;;13.80;;
59300;SDS011;45073;52.740;6.784;2022-12-18T04:52:48;33.72;;;15.60;;
59300;SDS011;45073;52.740;6.784;2022-12-18T04:55:14;28.40;;;14.13;;
59300;SDS011;45073;52.740;6.784;2022-12-18T04:57:39;31.48;;;15.35;;
59300;SDS011;45073;52.740;6.784;2022-12-18T05:00:05;33.90;;;14.60;;
59300;SDS011;45073;52.740;6.784;2022-12-18T05:02:31;32.72;;;15.30;;
59300;SDS011;45073;52.740;6.784;2022-12-18T05:04:57;33.47;;;14.80;;
59300;SDS011;45073;52.740;6.784;2022-12-18T05:07:22;34.45;;;13.98;;
59300;SDS011;45073;52.740;6.784;2022-12-18T05:09:48;27.30;;;12.20;;
59300;SDS011;45073;52.740;6.784;2022-12-18T05:12:14;32.30;;;13.32;;
59300;SDS011;45073;52.740;6.784;2022-12-18T05:14:39;27.98;;;13.38;;
59300;SDS011;45073;52.740;6.784;2022-12-18T05:17:05;33.25;;;12.85;;
59300;SDS011;45073;52.740;6.784;2022-12-18T05:19:30;31.80;;;13.95;;
59300;SDS011;45073;52.740;6.784;2022-12-18T05:21:56;26.95;;;13.80;;
59300;SDS011;45073;52.740;6.784;2022-12-18T05:24:22;29.33;;;13.75;;
59300;SDS011;45073;52.740;6.784;2022-12-18T05:26:48;25.88;;;10.95;;
59300;SDS011;45073;52.740;6.784;2022-12-18T05:29:13;29.17;;;13.65;;
59300;SDS011;45073;52.740;6.784;2022-12-18T05:31:39;32.90;;;14.43;;
59300;SDS011;45073;52.740;6.784;2022-12-18T05:34:05;32.22;;;13.88;;
59300;SDS011;45073;52.740;6.784;2022-12-18T05:36:30;36.17;;;15.07;;
59300;SDS011;45073;52.740;6.784;2022-12-18T05:38:56;27.08;;;13.82;;
59300;SDS011;45073;52.740;6.784;2022-12-18T05:41:22;30.38;;;13.80;;
59300;SDS011;45073;52.740;6.784;2022-12-18T05:43:47;27.98;;;13.55;;
59300;SDS011;45073;52.740;6.784;2022-12-18T05:46:16;30.48;;;13.73;;
59300;SDS011;45073;52.740;6.784;2022-12-18T05:48:45;32.22;;;15.10;;
59300;SDS011;45073;52.740;6.784;2022-12-18T05:51:12;29.95;;;12.98;;
59300;SDS011;45073;52.740;6.784;2022-12-18T05:53:39;28.42;;;13.65;;
59300;SDS011;45073;52.740;6.784;2022-12-18T05:56:06;31.80;;;13.77;;
59300;SDS011;45073;52.740;6.784;2022-12-18T05:58:35;24.00;;;13.13;;
59300;SDS011;45073;52.740;6.784;2022-12-18T06:01:08;28.35;;;14.68;;
59300;SDS011;45073;52.740;6.784;2022-12-18T06:03:39;29.80;;;12.98;;
59300;SDS011;45073;52.740;6.784;2022-12-18T06:06:12;24.35;;;13.18;;
59300;SDS011;45073;52.740;6.784;2022-12-18T06:08:39;29.42;;;13.30;;
59300;SDS011;45073;52.740;6.784;2022-12-18T06:11:04;31.05;;;13.57;;
59300;SDS011;45073;52.740;6.784;2022-12-18T06:13:30;28.63;;;14.27;;
59300;SDS011;45073;52.740;6.784;2022-12-18T06:15:55;29.67;;;14.32;;
59300;SDS011;45073;52.740;6.784;2022-12-18T06:18:21;24.85;;;11.52;;
59300;SDS011;45073;52.740;6.784;2022-12-18T06:20:53;29.92;;;13.15;;
59300;SDS011;45073;52.740;6.784;2022-12-18T06:23:23;32.05;;;14.82;;
59300;SDS011;45073;52.740;6.784;2022-12-18T06:25:48;24.75;;;12.50;;
59300;SDS011;45073;52.740;6.784;2022-12-18T06:28:14;25.40;;;11.27;;
59300;SDS011;45073;52.740;6.784;2022-12-18T06:30:40;34.58;;;14.38;;
59300;SDS011;45073;52.740;6.784;2022-12-18T06:33:08;27.17;;;13.25;;
59300;SDS011;45073;52.740;6.784;2022-12-18T06:35:34;27.45;;;11.18;;
59300;SDS011;45073;52.740;6.784;2022-12-18T06:38:00;22.65;;;11.35;;
59300;SDS011;45073;52.740;6.784;2022-12-18T06:40:27;28.05;;;11.13;;
59300;SDS011;45073;52.740;6.784;2022-12-18T06:42:52;26.55;;;12.55;;
59300;SDS011;45073;52.740;6.784;2022-12-18T06:45:18;21.90;;;11.20;;
59300;SDS011;45073;52.740;6.784;2022-12-18T06:47:43;23.33;;;11.43;;
59300;SDS011;45073;52.740;6.784;2022-12-18T06:50:09;22.00;;;10.68;;
59300;SDS011;45073;52.740;6.784;2022-12-18T06:52:35;25.17;;;12.20;;
59300;SDS011;45073;52.740;6.784;2022-12-18T06:55:01;29.00;;;13.35;;
59300;SDS011;45073;52.740;6.784;2022-12-18T06:57:27;27.60;;;13.27;;
59300;SDS011;45073;52.740;6.784;2022-12-18T06:59:53;25.27;;;12.38;;
59300;SDS011;45073;52.740;6.784;2022-12-18T07:02:19;27.03;;;13.57;;
59300;SDS011;45073;52.740;6.784;2022-12-18T07:04:44;21.63;;;11.82;;
59300;SDS011;45073;52.740;6.784;2022-12-18T07:07:10;24.80;;;11.75;;
59300;SDS011;45073;52.740;6.784;2022-12-18T07:09:36;29.50;;;13.30;;
59300;SDS011;45073;52.740;6.784;2022-12-18T07:12:01;24.80;;;12.67;;
59300;SDS011;45073;52.740;6.784;2022-12-18T07:14:27;23.08;;;10.55;;
59300;SDS011;45073;52.740;6.784;2022-12-18T07:16:53;20.88;;;9.82;;
59300;SDS011;45073;52.740;6.784;2022-12-18T07:19:18;21.52;;;11.43;;
59300;SDS011;45073;52.740;6.784;2022-12-18T07:21:44;23.87;;;11.87;;
59300;SDS011;45073;52.740;6.784;2022-12-18T07:24:09;26.33;;;13.33;;
59300;SDS011;45073;52.740;6.784;2022-12-18T07:26:35;27.60;;;11.75;;
59300;SDS011;45073;52.740;6.784;2022-12-18T07:29:00;22.50;;;9.65;;
59300;SDS011;45073;52.740;6.784;2022-12-18T07:31:26;23.00;;;10.13;;
59300;SDS011;45073;52.740;6.784;2022-12-18T07:33:52;23.75;;;11.90;;
59300;SDS011;45073;52.740;6.784;2022-12-18T07:36:18;22.52;;;11.02;;
59300;SDS011;45073;52.740;6.784;2022-12-18T07:38:46;21.20;;;11.13;;
59300;SDS011;45073;52.740;6.784;2022-12-18T07:41:13;24.65;;;10.27;;
59300;SDS011;45073;52.740;6.784;2022-12-18T07:43:39;22.20;;;11.30;;
59300;SDS011;45073;52.740;6.784;2022-12-18T07:46:06;20.13;;;10.43;;
59300;SDS011;45073;52.740;6.784;2022-12-18T07:48:32;22.95;;;10.80;;
59300;SDS011;45073;52.740;6.784;2022-12-18T07:51:01;23.25;;;11.40;;
59300;SDS011;45073;52.740;6.784;2022-12-18T07:53:29;24.95;;;12.52;;
59300;SDS011;45073;52.740;6.784;2022-12-18T07:55:56;22.33;;;10.70;;
59300;SDS011;45073;52.740;6.784;2022-12-18T07:58:26;22.17;;;10.82;;
59300;SDS011;45073;52.740;6.784;2022-12-18T08:00:51;22.15;;;10.68;;
59300;SDS011;45073;52.740;6.784;2022-12-18T08:03:17;26.63;;;10.90;;
59300;SDS011;45073;52.740;6.784;2022-12-18T08:05:43;23.38;;;9.45;;
59300;SDS011;45073;52.740;6.784;2022-12-18T08:08:09;23.88;;;11.07;;
59300;SDS011;45073;52.740;6.784;2022-12-18T08:10:35;25.15;;;12.23;;
59300;SDS011;45073;52.740;6.784;2022-12-18T08:13:01;21.13;;;11.03;;
59300;SDS011;45073;52.740;6.784;2022-12-18T08:15:26;21.63;;;10.68;;
59300;SDS011;45073;52.740;6.784;2022-12-18T08:17:52;20.63;;;9.95;;
59300;SDS011;45073;52.740;6.784;2022-12-18T08:20:21;22.58;;;11.40;;
59300;SDS011;45073;52.740;6.784;2022-12-18T08:22:46;21.75;;;11.38;;
59300;SDS011;45073;52.740;6.784;2022-12-18T08:25:12;24.90;;;12.15;;
59300;SDS011;45073;52.740;6.784;2022-12-18T08:27:37;25.08;;;12.57;;
59300;SDS011;45073;52.740;6.784;2022-12-18T08:30:03;27.58;;;11.70;;
59300;SDS011;45073;52.740;6.784;2022-12-18T08:32:30;23.88;;;11.02;;
59300;SDS011;45073;52.740;6.784;2022-12-18T08:34:57;23.55;;;10.77;;
59300;SDS011;45073;52.740;6.784;2022-12-18T08:37:23;19.13;;;9.95;;
59300;SDS011;45073;52.740;6.784;2022-12-18T08:39:49;22.15;;;11.93;;
59300;SDS011;45073;52.740;6.784;2022-12-18T08:42:14;20.65;;;10.40;;
59300;SDS011;45073;52.740;6.784;2022-12-18T08:44:58;20.02;;;9.68;;
59300;SDS011;45073;52.740;6.784;2022-12-18T08:47:24;18.88;;;9.65;;
59300;SDS011;45073;52.740;6.784;2022-12-18T08:49:51;16.58;;;8.55;;
59300;SDS011;45073;52.740;6.784;2022-12-18T08:52:16;19.27;;;9.40;;
59300;SDS011;45073;52.740;6.784;2022-12-18T08:54:42;20.13;;;9.63;;
59300;SDS011;45073;52.740;6.784;2022-12-18T08:57:07;21.90;;;9.30;;
59300;SDS011;45073;52.740;6.784;2022-12-18T08:59:33;20.60;;;9.00;;
59300;SDS011;45073;52.740;6.784;2022-12-18T09:01:59;18.77;;;9.60;;
59300;SDS011;45073;52.740;6.784;2022-12-18T09:04:24;18.40;;;9.65;;
59300;SDS011;45073;52.740;6.784;2022-12-18T09:06:50;18.95;;;9.00;;
59300;SDS011;45073;52.740;6.784;2022-12-18T09:09:15;17.05;;;9.02;;
59300;SDS011;45073;52.740;6.784;2022-12-18T09:11:41;18.10;;;9.35;;
59300;SDS011;45073;52.740;6.784;2022-12-18T09:14:07;19.50;;;9.05;;
59300;SDS011;45073;52.740;6.784;2022-12-18T09:16:34;17.42;;;8.65;;
59300;SDS011;45073;52.740;6.784;2022-12-18T09:19:00;18.63;;;8.38;;
59300;SDS011;45073;52.740;6.784;2022-12-18T09:21:32;17.73;;;7.28;;
59300;SDS011;45073;52.740;6.784;2022-12-18T09:23:59;15.70;;;8.05;;
59300;SDS011;45073;52.740;6.784;2022-12-18T09:26:25;17.27;;;8.23;;
59300;SDS011;45073;52.740;6.784;2022-12-18T09:28:51;17.60;;;7.75;;
59300;SDS011;45073;52.740;6.784;2022-12-18T09:31:18;15.18;;;7.88;;
59300;SDS011;45073;52.740;6.784;2022-12-18T09:33:45;17.17;;;8.52;;
59300;SDS011;45073;52.740;6.784;2022-12-18T09:36:12;14.25;;;7.00;;
59300;SDS011;45073;52.740;6.784;2022-12-18T09:38:39;15.90;;;7.40;;
59300;SDS011;45073;52.740;6.784;2022-12-18T09:41:06;15.73;;;7.07;;
59300;SDS011;45073;52.740;6.784;2022-12-18T09:44:01;11.93;;;6.55;;
59300;SDS011;45073;52.740;6.784;2022-12-18T09:46:41;14.13;;;6.78;;
59300;SDS011;45073;52.740;6.784;2022-12-18T09:49:18;17.20;;;7.00;;
59300;SDS011;45073;52.740;6.784;2022-12-18T09:51:52;12.55;;;6.13;;
59300;SDS011;45073;52.740;6.784;2022-12-18T09:54:32;12.48;;;5.90;;
59300;SDS011;45073;52.740;6.784;2022-12-18T09:57:13;13.90;;;5.95;;
59300;SDS011;45073;52.740;6.784;2022-12-18T09:59:42;12.65;;;6.03;;
59300;SDS011;45073;52.740;6.784;2022-12-18T10:02:12;12.52;;;5.70;;
59300;SDS011;45073;52.740;6.784;2022-12-18T10:04:47;14.48;;;7.05;;
59300;SDS011;45073;52.740;6.784;2022-12-18T10:10:10;12.27;;;6.50;;
59300;SDS011;45073;52.740;6.784;2022-12-18T10:21:34;11.60;;;5.32;;
59300;SDS011;45073;52.740;6.784;2022-12-18T10:26:38;11.90;;;5.63;;
59300;SDS011;45073;52.740;6.784;2022-12-18T10:29:09;13.05;;;4.78;;
59300;SDS011;45073;52.740;6.784;2022-12-18T10:31:38;11.38;;;5.70;;
59300;SDS011;45073;52.740;6.784;2022-12-18T10:34:04;11.23;;;5.10;;
59300;SDS011;45073;52.740;6.784;2022-12-18T10:36:33;11.27;;;5.10;;
59300;SDS011;45073;52.740;6.784;2022-12-18T10:39:16;11.82;;;5.45;;
59300;SDS011;45073;52.740;6.784;2022-12-18T10:41:43;10.25;;;4.63;;
59300;SDS011;45073;52.740;6.784;2022-12-18T10:44:11;12.63;;;5.38;;
59300;SDS011;45073;52.740;6.784;2022-12-18T10:46:43;10.82;;;4.88;;
59300;SDS011;45073;52.740;6.784;2022-12-18T10:49:24;9.63;;;4.50;;
59300;SDS011;45073;52.740;6.784;2022-12-18T10:52:03;9.13;;;4.38;;
59300;SDS011;45073;52.740;6.784;2022-12-18T10:54:52;12.38;;;4.70;;
59300;SDS011;45073;52.740;6.784;2022-12-18T10:59:55;10.60;;;3.80;;
59300;SDS011;45073;52.740;6.784;2022-12-18T11:02:27;10.80;;;4.45;;
59300;SDS011;45073;52.740;6.784;2022-12-18T11:04:59;11.07;;;4.68;;
59300;SDS011;45073;52.740;6.784;2022-12-18T11:07:25;11.60;;;4.57;;
59300;SDS011;45073;52.740;6.784;2022-12-18T11:10:00;10.85;;;4.38;;
59300;SDS011;45073;52.740;6.784;2022-12-18T11:12:26;10.23;;;4.93;;
59300;SDS011;45073;52.740;6.784;2022-12-18T11:14:54;11.70;;;5.45;;
59300;SDS011;45073;52.740;6.784;2022-12-18T11:17:25;10.07;;;4.28;;
59300;SDS011;45073;52.740;6.784;2022-12-18T11:20:00;11.02;;;4.18;;
59300;SDS011;45073;52.740;6.784;2022-12-18T11:22:32;10.10;;;4.38;;
59300;SDS011;45073;52.740;6.784;2022-12-18T11:25:01;9.60;;;4.47;;
59300;SDS011;45073;52.740;6.784;2022-12-18T11:27:30;10.60;;;4.75;;
59300;SDS011;45073;52.740;6.784;2022-12-18T11:32:45;11.15;;;5.25;;
59300;SDS011;45073;52.740;6.784;2022-12-18T11:35:16;15.27;;;5.07;;
59300;SDS011;45073;52.740;6.784;2022-12-18T11:38:11;11.45;;;4.88;;
59300;SDS011;45073;52.740;6.784;2022-12-18T11:40:38;9.88;;;4.78;;
59300;SDS011;45073;52.740;6.784;2022-12-18T11:43:09;12.57;;;4.35;;
59300;SDS011;45073;52.740;6.784;2022-12-18T11:46:26;10.68;;;4.68;;
59300;SDS011;45073;52.740;6.784;2022-12-18T11:48:50;9.40;;;4.07;;
59300;SDS011;45073;52.740;6.784;2022-12-18T11:51:38;10.13;;;4.55;;
59300;SDS011;45073;52.740;6.784;2022-12-18T11:54:12;10.98;;;5.10;;
59300;SDS011;45073;52.740;6.784;2022-12-18T11:56:42;11.75;;;4.63;;
59300;SDS011;45073;52.740;6.784;2022-12-18T12:02:20;10.05;;;3.88;;
59300;SDS011;45073;52.740;6.784;2022-12-18T12:13:54;10.45;;;4.65;;
59300;SDS011;45073;52.740;6.784;2022-12-18T12:16:45;12.60;;;4.82;;
59300;SDS011;45073;52.740;6.784;2022-12-18T12:19:41;11.15;;;4.80;;
59300;SDS011;45073;52.740;6.784;2022-12-18T12:27:55;11.85;;;5.05;;
59300;SDS011;45073;52.740;6.784;2022-12-18T12:31:03;10.30;;;4.85;;
59300;SDS011;45073;52.740;6.784;2022-12-18T12:33:51;11.35;;;4.57;;
59300;SDS011;45073;52.740;6.784;2022-12-18T12:39:23;12.82;;;6.53;;
59300;SDS011;45073;52.740;6.784;2022-12-18T12:41:55;10.02;;;4.22;;
59300;SDS011;45073;52.740;6.784;2022-12-18T12:44:43;11.70;;;4.63;;
59300;SDS011;45073;52.740;6.784;2022-12-18T12:47:14;11.67;;;5.00;;
59300;SDS011;45073;52.740;6.784;2022-12-18T12:49:44;9.70;;;4.40;;
59300;SDS011;45073;52.740;6.784;2022-12-18T12:52:32;13.15;;;4.70;;
59300;SDS011;45073;52.740;6.784;2022-12-18T12:55:01;11.32;;;5.22;;
59300;SDS011;45073;52.740;6.784;2022-12-18T12:57:37;13.43;;;4.95;;
59300;SDS011;45073;52.740;6.784;2022-12-18T13:00:24;13.50;;;6.00;;
59300;SDS011;45073;52.740;6.784;2022-12-18T13:10:32;13.18;;;5.40;;
59300;SDS011;45073;52.740;6.784;2022-12-18T13:15:44;12.20;;;5.72;;
59300;SDS011;45073;52.740;6.784;2022-12-18T13:18:21;12.55;;;5.78;;
59300;SDS011;45073;52.740;6.784;2022-12-18T13:20:49;11.98;;;5.50;;
59300;SDS011;45073;52.740;6.784;2022-12-18T13:25:51;12.10;;;6.32;;
59300;SDS011;45073;52.740;6.784;2022-12-18T13:28:21;12.48;;;5.78;;
59300;SDS011;45073;52.740;6.784;2022-12-18T13:30:57;10.93;;;5.53;;
59300;SDS011;45073;52.740;6.784;2022-12-18T13:36:02;12.57;;;5.97;;
59300;SDS011;45073;52.740;6.784;2022-12-18T13:43:44;12.40;;;6.10;;
59300;SDS011;45073;52.740;6.784;2022-12-18T13:46:56;12.57;;;5.95;;
59300;SDS011;45073;52.740;6.784;2022-12-18T13:51:39;13.00;;;6.78;;
59300;SDS011;45073;52.740;6.784;2022-12-18T13:57:02;14.05;;;6.43;;
59300;SDS011;45073;52.740;6.784;2022-12-18T13:59:39;14.20;;;6.65;;
59300;SDS011;45073;52.740;6.784;2022-12-18T14:02:09;13.02;;;6.03;;
59300;SDS011;45073;52.740;6.784;2022-12-18T14:04:39;12.43;;;5.97;;
59300;SDS011;45073;52.740;6.784;2022-12-18T14:07:05;12.77;;;6.03;;
59300;SDS011;45073;52.740;6.784;2022-12-18T14:09:52;13.13;;;6.18;;
59300;SDS011;45073;52.740;6.784;2022-12-18T14:15:14;13.35;;;6.70;;
59300;SDS011;45073;52.740;6.784;2022-12-18T14:17:47;12.98;;;6.07;;
59300;SDS011;45073;52.740;6.784;2022-12-18T14:20:15;13.95;;;6.47;;
59300;SDS011;45073;52.740;6.784;2022-12-18T14:22:45;11.38;;;5.57;;
59300;SDS011;45073;52.740;6.784;2022-12-18T14:27:41;14.25;;;5.72;;
59300;SDS011;45073;52.740;6.784;2022-12-18T14:33:01;15.10;;;6.68;;
59300;SDS011;45073;52.740;6.784;2022-12-18T14:35:42;13.52;;;7.30;;
59300;SDS011;45073;52.740;6.784;2022-12-18T14:40:47;12.20;;;6.30;;
59300;SDS011;45073;52.740;6.784;2022-12-18T14:43:20;14.25;;;6.38;;
59300;SDS011;45073;52.740;6.784;2022-12-18T14:45:46;13.55;;;6.85;;
59300;SDS011;45073;52.740;6.784;2022-12-18T14:58:59;14.23;;;6.45;;
59300;SDS011;45073;52.740;6.784;2022-12-18T15:01:34;13.32;;;6.13;;
59300;SDS011;45073;52.740;6.784;2022-12-18T15:04:03;16.13;;;6.82;;
59300;SDS011;45073;52.740;6.784;2022-12-18T15:06:45;14.68;;;6.90;;
59300;SDS011;45073;52.740;6.784;2022-12-18T15:09:20;15.07;;;7.25;;
59300;SDS011;45073;52.740;6.784;2022-12-18T15:11:48;13.98;;;7.60;;
59300;SDS011;45073;52.740;6.784;2022-12-18T15:14:22;14.20;;;7.30;;
59300;SDS011;45073;52.740;6.784;2022-12-18T15:17:22;16.88;;;7.32;;
59300;SDS011;45073;52.740;6.784;2022-12-18T15:19:49;15.55;;;8.15;;
59300;SDS011;45073;52.740;6.784;2022-12-18T15:22:27;14.00;;;7.18;;
59300;SDS011;45073;52.740;6.784;2022-12-18T15:25:01;15.43;;;7.70;;
59300;SDS011;45073;52.740;6.784;2022-12-18T15:27:32;16.25;;;7.60;;
59300;SDS011;45073;52.740;6.784;2022-12-18T15:32:38;16.40;;;8.07;;
59300;SDS011;45073;52.740;6.784;2022-12-18T15:37:36;14.13;;;7.57;;
59300;SDS011;45073;52.740;6.784;2022-12-18T15:40:03;12.63;;;7.00;;
59300;SDS011;45073;52.740;6.784;2022-12-18T15:42:29;15.98;;;7.07;;
59300;SDS011;45073;52.740;6.784;2022-12-18T15:45:14;13.02;;;6.55;;
59300;SDS011;45073;52.740;6.784;2022-12-18T15:47:40;14.43;;;7.55;;
59300;SDS011;45073;52.740;6.784;2022-12-18T15:50:07;15.43;;;7.82;;
59300;SDS011;45073;52.740;6.784;2022-12-18T15:52:35;14.93;;;7.15;;
59300;SDS011;45073;52.740;6.784;2022-12-18T15:58:01;14.00;;;8.00;;
59300;SDS011;45073;52.740;6.784;2022-12-18T16:00:26;14.68;;;7.47;;
59300;SDS011;45073;52.740;6.784;2022-12-18T16:02:52;13.73;;;7.20;;
59300;SDS011;45073;52.740;6.784;2022-12-18T16:05:19;15.27;;;7.55;;
59300;SDS011;45073;52.740;6.784;2022-12-18T16:07:45;17.35;;;7.97;;
59300;SDS011;45073;52.740;6.784;2022-12-18T16:10:11;13.70;;;6.78;;
59300;SDS011;45073;52.740;6.784;2022-12-18T16:12:37;15.38;;;7.32;;
59300;SDS011;45073;52.740;6.784;2022-12-18T16:15:03;15.77;;;7.90;;
59300;SDS011;45073;52.740;6.784;2022-12-18T16:17:29;15.02;;;7.60;;
59300;SDS011;45073;52.740;6.784;2022-12-18T16:19:55;14.80;;;7.57;;
59300;SDS011;45073;52.740;6.784;2022-12-18T16:22:22;13.50;;;7.45;;
59300;SDS011;45073;52.740;6.784;2022-12-18T16:24:50;15.52;;;8.05;;
59300;SDS011;45073;52.740;6.784;2022-12-18T16:27:17;15.45;;;8.38;;
59300;SDS011;45073;52.740;6.784;2022-12-18T16:29:43;15.77;;;7.72;;
59300;SDS011;45073;52.740;6.784;2022-12-18T16:32:11;15.88;;;7.70;;
59300;SDS011;45073;52.740;6.784;2022-12-18T16:34:41;14.70;;;7.43;;
59300;SDS011;45073;52.740;6.784;2022-12-18T16:37:08;17.23;;;8.32;;
59300;SDS011;45073;52.740;6.784;2022-12-18T16:39:34;16.55;;;7.57;;
59300;SDS011;45073;52.740;6.784;2022-12-18T16:42:12;14.70;;;7.80;;